createdAt,value
2023-04-21T00:01:15.143Z,21.77
2023-04-21T00:05:25.167Z,20.87
2023-04-21T00:09:34.005Z,18.60
2023-04-21T00:13:42.729Z,20.57
2023-04-21T00:17:51.839Z,18.23
2023-04-21T00:22:01.160Z,26.43
2023-04-21T00:26:09.875Z,23.23
2023-04-21T00:30:18.925Z,21.50
2023-04-21T00:34:27.641Z,21.47
2023-04-21T00:38:36.556Z,20.73
2023-04-21T00:42:45.108Z,22.13
2023-04-21T00:46:53.873Z,22.27
2023-04-21T00:51:05.679Z,24.80
2023-04-21T00:55:15.039Z,21.87
2023-04-21T00:59:23.686Z,23.27
2023-04-21T01:03:32.963Z,21.40
2023-04-21T01:07:43.867Z,20.30
2023-04-21T01:12:32.693Z,21.53
2023-04-21T01:16:41.468Z,20.40
2023-04-21T01:20:51.078Z,25.83
2023-04-21T01:24:59.701Z,21.17
2023-04-21T01:29:08.326Z,23.47
2023-04-21T01:33:17.916Z,25.10
2023-04-21T01:37:51.398Z,27.13
2023-04-21T01:42:01.762Z,25.17
2023-04-21T01:46:10.738Z,26.67
2023-04-21T01:50:19.500Z,26.40
2023-04-21T01:54:28.268Z,24.87
2023-04-21T01:58:36.904Z,24.77
2023-04-21T02:02:45.670Z,22.30
2023-04-21T02:06:54.290Z,25.93
2023-04-21T02:11:03.368Z,31.73
2023-04-21T02:15:12.646Z,30.75
2023-04-21T02:19:21.461Z,31.87
2023-04-21T02:23:30.303Z,24.80
2023-04-21T02:27:38.937Z,31.47
2023-04-21T02:31:58.907Z,23.17
2023-04-21T02:35:57.825Z,23.90
2023-04-21T02:40:07.654Z,28.73
2023-04-21T02:44:18.282Z,26.30
2023-04-21T02:48:26.898Z,24.10
2023-04-21T02:52:38.433Z,35.53
2023-04-21T02:56:47.213Z,30.37
2023-04-21T03:00:57.203Z,27.87
2023-04-21T03:05:06.437Z,37.33
2023-04-21T03:09:15.151Z,26.90
2023-04-21T03:13:25.803Z,28.50
2023-04-21T03:17:34.591Z,24.90
2023-04-21T03:21:43.285Z,34.40
2023-04-21T03:25:51.915Z,37.97
2023-04-21T03:30:00.658Z,29.73
2023-04-21T03:34:09.296Z,31.03
2023-04-21T03:38:17.913Z,32.60
2023-04-21T03:42:26.771Z,31.47
2023-04-21T03:46:35.481Z,37.67
2023-04-21T03:50:44.073Z,30.43
2023-04-21T03:54:52.922Z,27.93
2023-04-21T03:59:01.578Z,33.90
2023-04-21T04:03:10.494Z,31.60
2023-04-21T04:07:19.289Z,30.77
2023-04-21T04:11:27.898Z,34.00
2023-04-21T04:15:36.517Z,34.70
2023-04-21T04:19:45.145Z,36.37
2023-04-21T04:23:53.842Z,27.90
2023-04-21T04:28:02.880Z,34.10
2023-04-21T04:32:11.612Z,31.30
2023-04-21T04:36:20.241Z,27.87
2023-04-21T04:40:29.786Z,29.80
2023-04-21T04:44:38.419Z,25.73
2023-04-21T04:48:49.891Z,38.20
2023-04-21T04:52:58.515Z,28.33
2023-04-21T04:57:07.172Z,30.60
2023-04-21T05:01:17.441Z,34.87
2023-04-21T05:05:26.407Z,27.70
2023-04-21T05:09:35.876Z,24.07
2023-04-21T05:13:44.558Z,25.77
2023-04-21T05:17:53.241Z,33.97
2023-04-21T05:22:01.811Z,28.77
2023-04-21T05:26:10.409Z,26.03
2023-04-21T05:30:19.024Z,28.87
2023-04-21T05:34:27.626Z,28.17
2023-04-21T05:38:37.350Z,33.03
2023-04-21T05:42:45.987Z,31.40
2023-04-21T05:46:54.620Z,25.27
2023-04-21T05:51:11.674Z,28.38
2023-04-21T05:55:20.452Z,33.17
2023-04-21T05:59:29.097Z,32.28
2023-04-21T06:03:37.995Z,33.20
2023-04-21T06:07:47.174Z,33.77
2023-04-21T06:11:57.030Z,38.23
2023-04-21T06:16:06.349Z,31.67
2023-04-21T06:20:15.207Z,29.70
2023-04-21T06:24:25.803Z,45.57
2023-04-21T06:28:36.142Z,38.20
2023-04-21T06:32:48.689Z,37.77
2023-04-21T06:36:57.458Z,37.53
2023-04-21T06:41:06.646Z,29.83
2023-04-21T06:45:16.809Z,34.93
2023-04-21T06:49:25.451Z,41.10
2023-04-21T06:53:34.169Z,35.75
2023-04-21T06:57:43.003Z,35.33
2023-04-21T07:01:52.464Z,36.70
2023-04-21T07:06:01.223Z,40.43
2023-04-21T07:10:10.454Z,44.20
2023-04-21T07:14:19.065Z,35.33
2023-04-21T07:18:27.948Z,37.80
2023-04-21T07:22:36.919Z,35.07
2023-04-21T07:26:45.526Z,32.60
2023-04-21T07:30:54.148Z,34.83
2023-04-21T07:35:03.449Z,33.73
2023-04-21T07:39:12.177Z,36.03
2023-04-21T07:43:20.879Z,38.43
2023-04-21T07:47:30.608Z,30.60
2023-04-21T07:51:40.265Z,35.63
2023-04-21T07:55:48.928Z,27.00
2023-04-21T07:59:57.533Z,30.83
2023-04-21T08:04:06.816Z,43.10
2023-04-21T08:08:17.159Z,29.17
2023-04-21T08:12:25.896Z,28.80
2023-04-21T08:16:34.649Z,31.33
2023-04-21T08:20:43.278Z,31.03
2023-04-21T08:24:51.901Z,29.90
2023-04-21T08:29:03.517Z,37.33
2023-04-21T08:33:13.061Z,27.03
2023-04-21T08:37:23.071Z,39.13
2023-04-21T08:41:31.726Z,35.33
2023-04-21T08:45:41.851Z,33.90
2023-04-21T08:49:52.223Z,32.83
2023-04-21T08:54:00.891Z,29.10
2023-04-21T08:58:09.929Z,33.63
2023-04-21T09:02:20.425Z,29.00
2023-04-21T09:06:32.333Z,32.03
2023-04-21T09:10:47.209Z,24.37
2023-04-21T09:14:57.754Z,21.87
2023-04-21T09:19:09.457Z,27.03
2023-04-21T09:23:18.904Z,26.73
2023-04-21T09:27:27.575Z,23.03
2023-04-21T09:31:37.341Z,24.77
2023-04-21T09:35:46.122Z,21.73
2023-04-21T09:40:04.260Z,19.30
2023-04-21T09:44:05.222Z,22.43
2023-04-21T09:48:16.514Z,21.70
2023-04-21T09:52:27.337Z,21.00
2023-04-21T09:56:40.233Z,23.50
2023-04-21T10:00:50.180Z,20.40
2023-04-21T10:04:59.685Z,30.63
2023-04-21T10:09:12.418Z,28.77
2023-04-21T10:13:22.068Z,21.73
2023-04-21T10:22:00.566Z,21.17
2023-04-21T10:26:17.894Z,23.07
2023-04-21T10:30:27.556Z,23.47
2023-04-21T10:34:38.798Z,20.87
2023-04-21T10:38:50.567Z,24.20
2023-04-21T10:42:59.170Z,24.93
2023-04-21T10:47:08.947Z,22.57
2023-04-21T10:51:17.893Z,24.60
2023-04-21T10:59:43.547Z,24.47
2023-04-21T11:03:52.945Z,25.10
2023-04-21T11:08:06.677Z,20.00
2023-04-21T11:12:19.165Z,24.60
2023-04-21T11:16:28.063Z,22.70
2023-04-21T11:20:39.944Z,23.83
2023-04-21T11:24:50.863Z,26.03
2023-04-21T11:29:02.216Z,21.93
2023-04-21T11:33:10.898Z,22.70
2023-04-21T11:37:26.042Z,23.57
2023-04-21T11:41:36.216Z,23.47
2023-04-21T11:45:44.931Z,29.83
2023-04-21T11:49:56.361Z,26.50
2023-04-21T11:54:07.552Z,22.10
2023-04-21T11:58:17.986Z,25.07
2023-04-21T12:02:31.590Z,24.07
2023-04-21T12:06:40.416Z,20.17
2023-04-21T12:10:50.277Z,25.23
2023-04-21T12:14:59.175Z,23.30
2023-04-21T12:19:07.878Z,26.73
2023-04-21T12:23:16.612Z,19.50
2023-04-21T12:27:25.235Z,21.65
2023-04-21T12:31:34.122Z,21.00
2023-04-21T12:35:42.907Z,25.80
2023-04-21T12:39:51.640Z,18.77
2023-04-21T12:44:00.375Z,23.50
2023-04-21T12:48:09.057Z,19.83
2023-04-21T12:52:17.832Z,15.63
2023-04-21T12:56:27.082Z,16.63
2023-04-21T13:00:36.457Z,15.87
2023-04-21T13:04:45.423Z,18.30
2023-04-21T13:08:54.090Z,17.73
2023-04-21T13:13:02.720Z,15.47
2023-04-21T13:17:11.781Z,21.00
2023-04-21T13:21:20.434Z,15.23
2023-04-21T13:25:29.220Z,18.70
2023-04-21T13:29:37.780Z,13.10
2023-04-21T13:33:46.488Z,15.57
2023-04-21T13:37:55.338Z,14.30
2023-04-21T13:42:04.006Z,14.50
2023-04-21T13:46:14.522Z,15.53
2023-04-21T13:50:23.488Z,15.67
2023-04-21T13:54:33.144Z,12.60
2023-04-21T13:58:42.870Z,16.47
2023-04-21T14:02:51.769Z,12.37
2023-04-21T14:07:00.753Z,17.30
2023-04-21T14:11:09.460Z,14.10
2023-04-21T14:15:18.190Z,14.10
2023-04-21T14:19:27.022Z,14.10
2023-04-21T14:23:36.324Z,15.50
2023-04-21T14:27:45.053Z,13.83
2023-04-21T14:31:55.755Z,14.97
2023-04-21T14:36:04.713Z,17.60
2023-04-21T14:40:13.472Z,17.50
2023-04-21T14:44:22.199Z,13.90
2023-04-21T14:48:31.215Z,14.60
2023-04-21T14:52:39.951Z,12.57
2023-04-21T14:56:48.569Z,12.60
2023-04-21T15:00:58.135Z,13.63
2023-04-21T15:05:09.018Z,13.80
2023-04-21T15:09:17.770Z,18.10
2023-04-21T15:13:26.676Z,15.93
2023-04-21T15:17:35.340Z,11.93
2023-04-21T15:21:44.327Z,14.07
2023-04-21T15:25:52.952Z,11.57
2023-04-21T15:30:03.167Z,14.77
2023-04-21T15:34:11.864Z,11.07
2023-04-21T15:38:21.277Z,9.67
2023-04-21T15:42:30.061Z,8.63
2023-04-21T15:46:38.794Z,8.73
2023-04-21T15:50:47.781Z,9.00
2023-04-21T15:54:56.607Z,11.17
2023-04-21T15:59:05.543Z,11.37
2023-04-21T16:03:14.298Z,9.13
2023-04-21T16:07:23.695Z,10.40
2023-04-21T16:11:34.052Z,8.20
2023-04-21T16:15:43.805Z,7.53
2023-04-21T16:19:52.601Z,8.27
2023-04-21T16:24:01.373Z,12.90
2023-04-21T16:28:11.476Z,8.00
2023-04-21T16:32:20.449Z,10.53
2023-04-21T16:40:38.863Z,7.00
2023-04-21T16:44:50.776Z,7.47
2023-04-21T16:48:59.493Z,7.20
2023-04-21T16:53:16.577Z,7.20
2023-04-21T16:57:25.388Z,7.87
2023-04-21T17:01:34.486Z,8.50
2023-04-21T17:05:43.392Z,6.53
2023-04-21T17:09:52.091Z,5.03
2023-04-21T17:14:09.546Z,7.47
2023-04-21T17:18:18.353Z,3.47
2023-04-21T17:22:27.084Z,6.03
2023-04-21T17:26:36.226Z,3.47
2023-04-21T17:30:45.076Z,6.07
2023-04-21T17:34:54.096Z,3.83
2023-04-21T17:39:40.253Z,7.00
2023-04-21T17:43:49.141Z,3.87
2023-04-21T17:47:57.832Z,9.03
2023-04-21T17:52:06.687Z,6.07
2023-04-21T17:56:23.737Z,5.43
2023-04-21T18:00:34.215Z,3.93
2023-04-21T18:04:46.444Z,2.90
2023-04-21T18:08:56.008Z,3.40
2023-04-21T18:13:06.030Z,3.60
2023-04-21T18:17:16.009Z,4.13
2023-04-21T18:21:24.821Z,2.90
2023-04-21T18:25:42.010Z,3.10
2023-04-21T18:29:43.730Z,3.70
2023-04-21T18:33:52.927Z,4.10
2023-04-21T18:38:01.711Z,3.93
2023-04-21T18:42:10.526Z,4.67
2023-04-21T18:46:19.199Z,5.03
2023-04-21T18:50:27.993Z,3.80
2023-04-21T18:54:36.866Z,6.03
2023-04-21T18:58:45.862Z,6.20
2023-04-21T19:02:54.694Z,3.37
2023-04-21T19:07:03.643Z,3.40
2023-04-21T19:11:18.243Z,3.90
2023-04-21T19:15:27.350Z,6.60
2023-04-21T19:19:35.982Z,6.17
2023-04-21T19:23:44.699Z,7.20
2023-04-21T19:27:53.325Z,4.43
2023-04-21T19:32:03.080Z,6.53
2023-04-21T19:36:11.826Z,14.53
2023-04-21T19:40:20.871Z,3.87
2023-04-21T19:44:29.582Z,4.27
2023-04-21T19:48:39.434Z,6.23
2023-04-21T19:52:48.438Z,3.37
2023-04-21T19:56:57.033Z,3.10
2023-04-21T20:01:06.099Z,6.30
2023-04-21T20:05:14.737Z,2.70
2023-04-21T20:09:23.514Z,2.53
2023-04-21T20:13:32.348Z,3.13
2023-04-21T20:17:41.911Z,2.60
2023-04-21T20:21:51.038Z,3.63
2023-04-21T20:25:59.777Z,3.47
2023-04-21T20:30:27.676Z,3.50
2023-04-21T20:34:36.296Z,2.90
2023-04-21T20:38:46.587Z,3.30
2023-04-21T20:42:55.378Z,3.07
2023-04-21T20:47:04.440Z,3.60
2023-04-21T20:51:14.471Z,3.67
2023-04-21T20:55:23.143Z,2.60
2023-04-21T20:59:31.806Z,3.43
2023-04-21T21:17:28.019Z,4.50
2023-04-21T21:21:36.718Z,3.70
2023-04-21T21:25:45.678Z,4.40
2023-04-21T21:29:54.310Z,3.90
2023-04-21T21:34:03.918Z,4.07
2023-04-21T21:38:12.559Z,4.30
2023-04-21T21:42:21.191Z,4.07
2023-04-21T21:46:29.885Z,5.10
2023-04-21T21:50:38.757Z,4.60
2023-04-21T21:54:47.480Z,4.70
2023-04-21T21:58:56.220Z,6.03
2023-04-21T22:03:06.572Z,5.37
2023-04-21T22:07:15.934Z,4.33
2023-04-21T22:11:24.670Z,4.50
2023-04-21T22:15:35.284Z,5.53
2023-04-21T22:19:43.563Z,4.87
2023-04-21T22:23:52.149Z,6.10
2023-04-21T22:28:00.719Z,5.87
2023-04-21T22:32:09.717Z,5.40
2023-04-21T22:36:18.191Z,7.33
2023-04-21T22:40:26.767Z,5.67
2023-04-21T22:44:35.702Z,7.70
2023-04-21T22:48:45.894Z,4.93
2023-04-21T22:52:54.461Z,6.13
2023-04-21T22:57:03.440Z,6.50
2023-04-21T23:01:11.993Z,6.63
2023-04-21T23:05:20.574Z,8.40
2023-04-21T23:09:29.059Z,6.53
2023-04-21T23:13:37.809Z,10.73
2023-04-21T23:17:46.316Z,10.30
2023-04-21T23:21:54.931Z,9.60
2023-04-21T23:26:03.400Z,7.17
2023-04-21T23:30:12.657Z,9.37
2023-04-21T23:34:21.204Z,7.70
2023-04-21T23:38:29.701Z,8.07
2023-04-21T23:42:41.271Z,12.03
2023-04-21T23:46:49.833Z,11.23
2023-04-21T23:50:58.362Z,9.50
2023-04-21T23:55:08.068Z,10.13
2023-04-21T23:59:16.623Z,8.27
